sensor_id;sensor_type;location;lat;lon;timestamp;temperature;humidity
21508;DHT22;10915;54.352;9.074;2023-06-22T00:01:16;16.80;99.90
21508;DHT22;10915;54.352;9.074;2023-06-22T00:03:42;16.70;99.90
21508;DHT22;10915;54.352;9.074;2023-06-22T00:06:07;16.60;99.90
21508;DHT22;10915;54.352;9.074;2023-06-22T00:08:33;16.50;99.90
21508;DHT22;10915;54.352;9.074;2023-06-22T00:10:58;16.40;99.90
21508;DHT22;10915;54.352;9.074;2023-06-22T00:13:24;16.40;99.90
21508;DHT22;10915;54.352;9.074;2023-06-22T00:15:49;16.20;99.90
21508;DHT22;10915;54.352;9.074;2023-06-22T00:18:15;16.00;99.90
21508;DHT22;10915;54.352;9.074;2023-06-22T00:20:42;15.90;99.90
21508;DHT22;10915;54.352;9.074;2023-06-22T00:23:07;15.80;99.90
21508;DHT22;10915;54.352;9.074;2023-06-22T00:25:39;15.70;99.90
21508;DHT22;10915;54.352;9.074;2023-06-22T00:28:06;15.50;99.90
21508;DHT22;10915;54.352;9.074;2023-06-22T00:30:32;15.30;99.90
21508;DHT22;10915;54.352;9.074;2023-06-22T00:32:58;15.30;99.90
21508;DHT22;10915;54.352;9.074;2023-06-22T00:35:24;15.20;99.90
21508;DHT22;10915;54.352;9.074;2023-06-22T00:37:58;15.20;99.90
21508;DHT22;10915;54.352;9.074;2023-06-22T00:40:29;15.20;99.90
21508;DHT22;10915;54.352;9.074;2023-06-22T00:42:55;15.30;99.90
21508;DHT22;10915;54.352;9.074;2023-06-22T00:45:25;15.30;99.90
21508;DHT22;10915;54.352;9.074;2023-06-22T00:47:52;15.30;99.90
21508;DHT22;10915;54.352;9.074;2023-06-22T00:50:20;15.30;99.90
21508;DHT22;10915;54.352;9.074;2023-06-22T00:52:55;15.40;99.90
21508;DHT22;10915;54.352;9.074;2023-06-22T00:55:24;15.40;99.90
21508;DHT22;10915;54.352;9.074;2023-06-22T00:57:51;15.50;99.90
21508;DHT22;10915;54.352;9.074;2023-06-22T01:00:21;15.50;99.90
21508;DHT22;10915;54.352;9.074;2023-06-22T01:02:52;15.50;99.90
21508;DHT22;10915;54.352;9.074;2023-06-22T01:05:19;15.60;99.90
21508;DHT22;10915;54.352;9.074;2023-06-22T01:16:36;15.40;99.90
21508;DHT22;10915;54.352;9.074;2023-06-22T01:22:55;15.30;99.90
21508;DHT22;10915;54.352;9.074;2023-06-22T01:28:55;15.30;99.90
21508;DHT22;10915;54.352;9.074;2023-06-22T01:31:31;15.30;99.90
21508;DHT22;10915;54.352;9.074;2023-06-22T01:34:07;15.10;99.90
21508;DHT22;10915;54.352;9.074;2023-06-22T01:36:43;15.00;99.90
21508;DHT22;10915;54.352;9.074;2023-06-22T01:39:11;15.00;99.90
21508;DHT22;10915;54.352;9.074;2023-06-22T01:41:38;15.00;99.90
21508;DHT22;10915;54.352;9.074;2023-06-22T01:44:06;15.10;99.90
21508;DHT22;10915;54.352;9.074;2023-06-22T01:46:35;15.10;99.90
21508;DHT22;10915;54.352;9.074;2023-06-22T01:49:02;15.10;99.90
21508;DHT22;10915;54.352;9.074;2023-06-22T01:51:28;15.10;99.90
21508;DHT22;10915;54.352;9.074;2023-06-22T01:53:54;15.10;99.90
21508;DHT22;10915;54.352;9.074;2023-06-22T01:56:19;15.10;99.90
21508;DHT22;10915;54.352;9.074;2023-06-22T01:58:51;15.10;99.90
21508;DHT22;10915;54.352;9.074;2023-06-22T02:01:24;15.10;99.90
21508;DHT22;10915;54.352;9.074;2023-06-22T02:04:02;15.10;99.90
21508;DHT22;10915;54.352;9.074;2023-06-22T02:06:33;15.10;99.90
21508;DHT22;10915;54.352;9.074;2023-06-22T02:09:23;15.10;99.90
21508;DHT22;10915;54.352;9.074;2023-06-22T02:11:55;15.10;99.90
21508;DHT22;10915;54.352;9.074;2023-06-22T02:14:23;15.10;99.90
21508;DHT22;10915;54.352;9.074;2023-06-22T02:16:51;15.10;99.90
21508;DHT22;10915;54.352;9.074;2023-06-22T02:19:16;15.10;99.90
21508;DHT22;10915;54.352;9.074;2023-06-22T02:21:44;15.10;99.90
21508;DHT22;10915;54.352;9.074;2023-06-22T02:24:10;15.20;99.90
21508;DHT22;10915;54.352;9.074;2023-06-22T02:26:36;15.20;99.90
21508;DHT22;10915;54.352;9.074;2023-06-22T02:29:03;15.20;99.90
21508;DHT22;10915;54.352;9.074;2023-06-22T02:31:29;15.10;99.90
21508;DHT22;10915;54.352;9.074;2023-06-22T02:33:57;15.10;99.90
21508;DHT22;10915;54.352;9.074;2023-06-22T02:36:24;15.10;99.90
21508;DHT22;10915;54.352;9.074;2023-06-22T02:38:58;15.00;99.90
21508;DHT22;10915;54.352;9.074;2023-06-22T02:41:37;14.80;99.90
21508;DHT22;10915;54.352;9.074;2023-06-22T02:44:20;14.40;99.90
21508;DHT22;10915;54.352;9.074;2023-06-22T02:46:57;14.30;99.90
21508;DHT22;10915;54.352;9.074;2023-06-22T02:49:27;14.30;99.90
21508;DHT22;10915;54.352;9.074;2023-06-22T02:51:53;14.30;99.90
21508;DHT22;10915;54.352;9.074;2023-06-22T02:54:24;14.40;99.90
21508;DHT22;10915;54.352;9.074;2023-06-22T02:57:16;14.50;99.90
21508;DHT22;10915;54.352;9.074;2023-06-22T02:59:51;14.60;99.90
21508;DHT22;10915;54.352;9.074;2023-06-22T03:02:16;14.50;99.90
21508;DHT22;10915;54.352;9.074;2023-06-22T03:04:43;14.50;99.90
21508;DHT22;10915;54.352;9.074;2023-06-22T03:07:08;14.50;99.90
21508;DHT22;10915;54.352;9.074;2023-06-22T03:09:34;14.50;99.90
21508;DHT22;10915;54.352;9.074;2023-06-22T03:12:00;14.50;99.90
21508;DHT22;10915;54.352;9.074;2023-06-22T03:14:27;14.50;99.90
21508;DHT22;10915;54.352;9.074;2023-06-22T03:16:53;14.50;99.90
21508;DHT22;10915;54.352;9.074;2023-06-22T03:19:18;14.40;99.90
21508;DHT22;10915;54.352;9.074;2023-06-22T03:21:45;14.50;99.90
21508;DHT22;10915;54.352;9.074;2023-06-22T03:24:13;14.50;99.90
21508;DHT22;10915;54.352;9.074;2023-06-22T03:26:38;14.50;99.90
21508;DHT22;10915;54.352;9.074;2023-06-22T03:29:04;14.60;99.90
21508;DHT22;10915;54.352;9.074;2023-06-22T03:31:29;14.60;99.90
21508;DHT22;10915;54.352;9.074;2023-06-22T03:33:55;14.70;99.90
21508;DHT22;10915;54.352;9.074;2023-06-22T03:36:23;14.70;99.90
21508;DHT22;10915;54.352;9.074;2023-06-22T03:38:49;14.80;99.90
21508;DHT22;10915;54.352;9.074;2023-06-22T03:41:15;14.90;99.90
21508;DHT22;10915;54.352;9.074;2023-06-22T03:43:41;14.90;99.90
21508;DHT22;10915;54.352;9.074;2023-06-22T03:46:07;14.90;99.90
21508;DHT22;10915;54.352;9.074;2023-06-22T03:48:33;14.80;99.90
21508;DHT22;10915;54.352;9.074;2023-06-22T03:51:02;14.80;99.90
21508;DHT22;10915;54.352;9.074;2023-06-22T03:53:29;14.70;99.90
21508;DHT22;10915;54.352;9.074;2023-06-22T03:56:01;14.70;99.90
21508;DHT22;10915;54.352;9.074;2023-06-22T03:58:26;14.60;99.90
21508;DHT22;10915;54.352;9.074;2023-06-22T04:00:58;13.90;99.90
21508;DHT22;10915;54.352;9.074;2023-06-22T04:03:25;13.60;99.90
21508;DHT22;10915;54.352;9.074;2023-06-22T04:06:00;13.70;99.90
21508;DHT22;10915;54.352;9.074;2023-06-22T04:08:29;13.50;99.90
21508;DHT22;10915;54.352;9.074;2023-06-22T04:10:55;13.50;99.90
21508;DHT22;10915;54.352;9.074;2023-06-22T04:13:21;13.70;99.90
21508;DHT22;10915;54.352;9.074;2023-06-22T04:15:47;14.00;99.90
21508;DHT22;10915;54.352;9.074;2023-06-22T04:18:12;14.10;99.90
21508;DHT22;10915;54.352;9.074;2023-06-22T04:20:39;14.30;99.90
21508;DHT22;10915;54.352;9.074;2023-06-22T04:23:04;14.50;99.90
21508;DHT22;10915;54.352;9.074;2023-06-22T04:25:30;14.60;99.90
21508;DHT22;10915;54.352;9.074;2023-06-22T04:27:56;14.70;99.90
21508;DHT22;10915;54.352;9.074;2023-06-22T04:30:21;14.80;99.90
21508;DHT22;10915;54.352;9.074;2023-06-22T04:32:48;14.80;99.90
21508;DHT22;10915;54.352;9.074;2023-06-22T04:35:24;14.50;99.90
21508;DHT22;10915;54.352;9.074;2023-06-22T04:37:50;14.60;99.90
21508;DHT22;10915;54.352;9.074;2023-06-22T04:40:16;14.70;99.90
21508;DHT22;10915;54.352;9.074;2023-06-22T04:42:41;14.80;99.90
21508;DHT22;10915;54.352;9.074;2023-06-22T04:45:17;14.80;99.90
21508;DHT22;10915;54.352;9.074;2023-06-22T04:47:43;15.00;99.90
21508;DHT22;10915;54.352;9.074;2023-06-22T04:50:11;15.20;99.90
21508;DHT22;10915;54.352;9.074;2023-06-22T04:52:37;15.30;99.90
21508;DHT22;10915;54.352;9.074;2023-06-22T04:55:37;15.40;99.90
21508;DHT22;10915;54.352;9.074;2023-06-22T04:58:34;15.60;99.90
21508;DHT22;10915;54.352;9.074;2023-06-22T05:01:00;15.80;99.90
21508;DHT22;10915;54.352;9.074;2023-06-22T05:03:29;15.90;99.90
21508;DHT22;10915;54.352;9.074;2023-06-22T05:06:08;16.10;99.90
21508;DHT22;10915;54.352;9.074;2023-06-22T05:08:39;16.20;99.90
21508;DHT22;10915;54.352;9.074;2023-06-22T05:11:04;16.30;99.90
21508;DHT22;10915;54.352;9.074;2023-06-22T05:13:30;16.80;99.90
21508;DHT22;10915;54.352;9.074;2023-06-22T05:16:01;17.20;99.90
21508;DHT22;10915;54.352;9.074;2023-06-22T05:18:33;17.40;99.90
21508;DHT22;10915;54.352;9.074;2023-06-22T05:21:00;17.60;99.90
21508;DHT22;10915;54.352;9.074;2023-06-22T05:23:25;17.80;99.90
21508;DHT22;10915;54.352;9.074;2023-06-22T05:25:51;17.90;99.90
21508;DHT22;10915;54.352;9.074;2023-06-22T05:28:17;17.90;99.90
21508;DHT22;10915;54.352;9.074;2023-06-22T05:30:48;17.90;99.90
21508;DHT22;10915;54.352;9.074;2023-06-22T05:33:14;17.90;99.90
21508;DHT22;10915;54.352;9.074;2023-06-22T05:35:47;17.80;99.90
21508;DHT22;10915;54.352;9.074;2023-06-22T05:38:17;17.80;99.90
21508;DHT22;10915;54.352;9.074;2023-06-22T05:44:25;18.00;99.90
21508;DHT22;10915;54.352;9.074;2023-06-22T05:47:11;18.20;99.90
21508;DHT22;10915;54.352;9.074;2023-06-22T05:50:03;18.20;99.90
21508;DHT22;10915;54.352;9.074;2023-06-22T05:52:36;18.30;99.90
21508;DHT22;10915;54.352;9.074;2023-06-22T05:55:03;18.40;99.90
21508;DHT22;10915;54.352;9.074;2023-06-22T05:57:28;18.40;99.90
21508;DHT22;10915;54.352;9.074;2023-06-22T05:59:57;18.30;99.90
21508;DHT22;10915;54.352;9.074;2023-06-22T06:02:25;18.30;99.90
21508;DHT22;10915;54.352;9.074;2023-06-22T06:04:50;18.20;99.90
21508;DHT22;10915;54.352;9.074;2023-06-22T06:07:18;18.20;99.90
21508;DHT22;10915;54.352;9.074;2023-06-22T06:09:44;18.10;99.90
21508;DHT22;10915;54.352;9.074;2023-06-22T06:12:10;18.00;99.90
21508;DHT22;10915;54.352;9.074;2023-06-22T06:14:35;18.20;99.90
21508;DHT22;10915;54.352;9.074;2023-06-22T06:17:01;18.30;99.90
21508;DHT22;10915;54.352;9.074;2023-06-22T06:19:27;18.40;99.90
21508;DHT22;10915;54.352;9.074;2023-06-22T06:21:55;18.60;99.90
21508;DHT22;10915;54.352;9.074;2023-06-22T06:24:21;18.50;99.90
21508;DHT22;10915;54.352;9.074;2023-06-22T06:26:47;18.50;99.90
21508;DHT22;10915;54.352;9.074;2023-06-22T06:29:13;18.70;99.90
21508;DHT22;10915;54.352;9.074;2023-06-22T06:31:50;18.60;99.90
21508;DHT22;10915;54.352;9.074;2023-06-22T06:34:16;18.80;99.90
21508;DHT22;10915;54.352;9.074;2023-06-22T06:36:42;19.10;99.90
21508;DHT22;10915;54.352;9.074;2023-06-22T06:39:07;19.30;99.90
21508;DHT22;10915;54.352;9.074;2023-06-22T06:41:34;19.50;99.90
21508;DHT22;10915;54.352;9.074;2023-06-22T06:44:05;19.70;99.90
21508;DHT22;10915;54.352;9.074;2023-06-22T06:46:31;19.80;99.90
21508;DHT22;10915;54.352;9.074;2023-06-22T06:48:57;20.00;99.90
21508;DHT22;10915;54.352;9.074;2023-06-22T06:51:22;20.10;99.90
21508;DHT22;10915;54.352;9.074;2023-06-22T06:53:50;20.30;99.90
21508;DHT22;10915;54.352;9.074;2023-06-22T06:56:16;20.40;99.90
21508;DHT22;10915;54.352;9.074;2023-06-22T06:58:42;20.50;99.90
21508;DHT22;10915;54.352;9.074;2023-06-22T07:01:08;20.60;99.90
21508;DHT22;10915;54.352;9.074;2023-06-22T07:03:34;20.60;99.90
21508;DHT22;10915;54.352;9.074;2023-06-22T07:06:00;20.60;99.90
21508;DHT22;10915;54.352;9.074;2023-06-22T07:08:58;20.70;99.90
21508;DHT22;10915;54.352;9.074;2023-06-22T07:11:31;20.50;99.90
21508;DHT22;10915;54.352;9.074;2023-06-22T07:13:56;20.70;99.90
21508;DHT22;10915;54.352;9.074;2023-06-22T07:16:22;20.80;99.90
21508;DHT22;10915;54.352;9.074;2023-06-22T07:18:49;20.90;99.90
21508;DHT22;10915;54.352;9.074;2023-06-22T07:21:14;21.00;99.90
21508;DHT22;10915;54.352;9.074;2023-06-22T07:23:40;21.10;99.90
21508;DHT22;10915;54.352;9.074;2023-06-22T07:26:06;21.10;99.90
21508;DHT22;10915;54.352;9.074;2023-06-22T07:28:32;21.20;99.90
21508;DHT22;10915;54.352;9.074;2023-06-22T07:31:03;21.10;99.90
21508;DHT22;10915;54.352;9.074;2023-06-22T07:33:29;21.20;99.90
21508;DHT22;10915;54.352;9.074;2023-06-22T07:35:55;21.20;99.90
21508;DHT22;10915;54.352;9.074;2023-06-22T07:38:24;21.30;99.90
21508;DHT22;10915;54.352;9.074;2023-06-22T07:40:49;21.40;99.90
21508;DHT22;10915;54.352;9.074;2023-06-22T07:43:16;21.50;99.90
21508;DHT22;10915;54.352;9.074;2023-06-22T07:46:04;21.60;99.90
21508;DHT22;10915;54.352;9.074;2023-06-22T07:48:37;21.80;99.90
21508;DHT22;10915;54.352;9.074;2023-06-22T07:51:13;21.90;99.90
21508;DHT22;10915;54.352;9.074;2023-06-22T07:53:56;21.70;99.90
21508;DHT22;10915;54.352;9.074;2023-06-22T07:56:22;22.00;99.90
21508;DHT22;10915;54.352;9.074;2023-06-22T07:58:54;22.20;99.90
21508;DHT22;10915;54.352;9.074;2023-06-22T08:08:15;23.10;99.90
21508;DHT22;10915;54.352;9.074;2023-06-22T08:11:07;23.30;99.90
21508;DHT22;10915;54.352;9.074;2023-06-22T08:13:40;23.90;99.90
21508;DHT22;10915;54.352;9.074;2023-06-22T08:16:10;24.40;99.90
21508;DHT22;10915;54.352;9.074;2023-06-22T08:18:36;24.60;99.90
21508;DHT22;10915;54.352;9.074;2023-06-22T08:21:02;24.80;99.90
21508;DHT22;10915;54.352;9.074;2023-06-22T08:23:28;24.90;99.90
21508;DHT22;10915;54.352;9.074;2023-06-22T08:25:53;24.40;99.90
21508;DHT22;10915;54.352;9.074;2023-06-22T08:28:19;24.60;99.90
21508;DHT22;10915;54.352;9.074;2023-06-22T08:30:45;24.90;99.90
21508;DHT22;10915;54.352;9.074;2023-06-22T08:33:10;25.10;99.90
21508;DHT22;10915;54.352;9.074;2023-06-22T08:35:36;25.20;99.90
21508;DHT22;10915;54.352;9.074;2023-06-22T08:38:02;25.30;99.90
21508;DHT22;10915;54.352;9.074;2023-06-22T08:40:27;25.40;99.90
21508;DHT22;10915;54.352;9.074;2023-06-22T08:42:54;25.50;99.90
21508;DHT22;10915;54.352;9.074;2023-06-22T08:45:20;25.40;99.90
21508;DHT22;10915;54.352;9.074;2023-06-22T08:47:46;25.50;99.90
21508;DHT22;10915;54.352;9.074;2023-06-22T08:50:12;25.50;99.90
21508;DHT22;10915;54.352;9.074;2023-06-22T08:52:39;25.50;99.90
21508;DHT22;10915;54.352;9.074;2023-06-22T08:55:07;25.60;99.90
21508;DHT22;10915;54.352;9.074;2023-06-22T08:57:33;25.00;99.90
21508;DHT22;10915;54.352;9.074;2023-06-22T08:59:59;24.60;99.90
21508;DHT22;10915;54.352;9.074;2023-06-22T09:02:28;24.40;99.90
21508;DHT22;10915;54.352;9.074;2023-06-22T09:04:59;24.40;99.90
21508;DHT22;10915;54.352;9.074;2023-06-22T09:07:25;24.00;99.90
21508;DHT22;10915;54.352;9.074;2023-06-22T09:09:51;24.30;99.90
21508;DHT22;10915;54.352;9.074;2023-06-22T09:12:18;24.50;99.90
21508;DHT22;10915;54.352;9.074;2023-06-22T09:14:46;24.70;99.90
21508;DHT22;10915;54.352;9.074;2023-06-22T09:17:13;24.50;99.90
21508;DHT22;10915;54.352;9.074;2023-06-22T09:19:38;24.10;99.90
21508;DHT22;10915;54.352;9.074;2023-06-22T09:22:04;23.90;99.90
21508;DHT22;10915;54.352;9.074;2023-06-22T09:24:32;23.80;99.90
21508;DHT22;10915;54.352;9.074;2023-06-22T09:26:57;23.90;99.90
21508;DHT22;10915;54.352;9.074;2023-06-22T09:29:23;23.80;99.90
21508;DHT22;10915;54.352;9.074;2023-06-22T09:31:48;24.10;99.90
21508;DHT22;10915;54.352;9.074;2023-06-22T09:34:14;24.30;99.90
21508;DHT22;10915;54.352;9.074;2023-06-22T09:36:41;24.40;99.90
21508;DHT22;10915;54.352;9.074;2023-06-22T09:39:06;24.70;99.90
21508;DHT22;10915;54.352;9.074;2023-06-22T09:41:32;24.80;99.90
21508;DHT22;10915;54.352;9.074;2023-06-22T09:43:58;24.60;99.90
21508;DHT22;10915;54.352;9.074;2023-06-22T09:46:23;24.70;99.90
21508;DHT22;10915;54.352;9.074;2023-06-22T09:48:53;25.10;99.90
21508;DHT22;10915;54.352;9.074;2023-06-22T09:51:19;25.20;99.90
21508;DHT22;10915;54.352;9.074;2023-06-22T09:53:47;25.60;99.90
21508;DHT22;10915;54.352;9.074;2023-06-22T09:56:12;25.60;99.90
21508;DHT22;10915;54.352;9.074;2023-06-22T09:58:44;25.20;99.90
21508;DHT22;10915;54.352;9.074;2023-06-22T10:01:11;25.50;99.90
21508;DHT22;10915;54.352;9.074;2023-06-22T10:03:37;25.20;99.90
21508;DHT22;10915;54.352;9.074;2023-06-22T10:06:03;25.20;99.90
21508;DHT22;10915;54.352;9.074;2023-06-22T10:08:29;25.00;99.90
21508;DHT22;10915;54.352;9.074;2023-06-22T10:10:55;24.80;99.90
21508;DHT22;10915;54.352;9.074;2023-06-22T10:13:20;24.70;99.90
21508;DHT22;10915;54.352;9.074;2023-06-22T10:15:46;24.90;99.90
21508;DHT22;10915;54.352;9.074;2023-06-22T10:18:18;24.80;99.90
21508;DHT22;10915;54.352;9.074;2023-06-22T10:20:46;25.00;99.90
21508;DHT22;10915;54.352;9.074;2023-06-22T10:23:12;24.80;99.90
21508;DHT22;10915;54.352;9.074;2023-06-22T10:25:38;24.90;99.90
21508;DHT22;10915;54.352;9.074;2023-06-22T10:28:04;24.40;99.90
21508;DHT22;10915;54.352;9.074;2023-06-22T10:30:29;24.60;99.90
21508;DHT22;10915;54.352;9.074;2023-06-22T10:32:55;24.70;99.90
21508;DHT22;10915;54.352;9.074;2023-06-22T10:35:20;24.60;99.90
21508;DHT22;10915;54.352;9.074;2023-06-22T10:37:46;24.50;99.90
21508;DHT22;10915;54.352;9.074;2023-06-22T10:40:13;24.90;99.90
21508;DHT22;10915;54.352;9.074;2023-06-22T10:42:40;24.70;99.90
21508;DHT22;10915;54.352;9.074;2023-06-22T10:45:06;25.10;99.90
21508;DHT22;10915;54.352;9.074;2023-06-22T10:47:32;25.50;99.90
21508;DHT22;10915;54.352;9.074;2023-06-22T10:49:57;25.60;99.90
21508;DHT22;10915;54.352;9.074;2023-06-22T10:52:23;25.20;99.90
21508;DHT22;10915;54.352;9.074;2023-06-22T10:54:49;25.50;99.90
21508;DHT22;10915;54.352;9.074;2023-06-22T10:57:14;25.90;99.90
21508;DHT22;10915;54.352;9.074;2023-06-22T10:59:40;26.30;99.90
21508;DHT22;10915;54.352;9.074;2023-06-22T11:02:06;26.70;99.90
21508;DHT22;10915;54.352;9.074;2023-06-22T11:04:31;27.10;99.90
21508;DHT22;10915;54.352;9.074;2023-06-22T11:06:57;27.40;99.90
21508;DHT22;10915;54.352;9.074;2023-06-22T11:09:22;27.60;99.90
21508;DHT22;10915;54.352;9.074;2023-06-22T11:11:50;27.60;99.90
21508;DHT22;10915;54.352;9.074;2023-06-22T11:14:16;27.70;99.90
21508;DHT22;10915;54.352;9.074;2023-06-22T11:16:41;27.60;99.90
21508;DHT22;10915;54.352;9.074;2023-06-22T11:19:07;27.60;99.90
21508;DHT22;10915;54.352;9.074;2023-06-22T11:21:33;27.70;99.90
21508;DHT22;10915;54.352;9.074;2023-06-22T11:23:59;27.80;99.90
21508;DHT22;10915;54.352;9.074;2023-06-22T11:26:25;27.90;99.90
21508;DHT22;10915;54.352;9.074;2023-06-22T11:28:54;28.10;99.90
21508;DHT22;10915;54.352;9.074;2023-06-22T11:31:20;28.30;99.90
21508;DHT22;10915;54.352;9.074;2023-06-22T11:33:45;28.30;99.90
21508;DHT22;10915;54.352;9.074;2023-06-22T11:36:12;28.20;99.90
21508;DHT22;10915;54.352;9.074;2023-06-22T11:38:38;28.30;99.90
21508;DHT22;10915;54.352;9.074;2023-06-22T11:41:05;28.20;99.90
21508;DHT22;10915;54.352;9.074;2023-06-22T11:43:31;27.80;99.90
21508;DHT22;10915;54.352;9.074;2023-06-22T11:45:57;27.30;99.90
21508;DHT22;10915;54.352;9.074;2023-06-22T11:48:24;27.00;99.90
21508;DHT22;10915;54.352;9.074;2023-06-22T11:50:50;26.60;99.90
21508;DHT22;10915;54.352;9.074;2023-06-22T11:53:15;26.40;99.90
21508;DHT22;10915;54.352;9.074;2023-06-22T11:55:43;25.90;99.90
21508;DHT22;10915;54.352;9.074;2023-06-22T11:58:08;25.20;99.90
21508;DHT22;10915;54.352;9.074;2023-06-22T12:00:34;25.20;99.90
21508;DHT22;10915;54.352;9.074;2023-06-22T12:03:00;25.30;99.90
21508;DHT22;10915;54.352;9.074;2023-06-22T12:05:25;25.40;99.90
21508;DHT22;10915;54.352;9.074;2023-06-22T12:07:53;25.40;99.90
21508;DHT22;10915;54.352;9.074;2023-06-22T12:10:20;25.40;99.90
21508;DHT22;10915;54.352;9.074;2023-06-22T12:12:45;25.30;99.90
21508;DHT22;10915;54.352;9.074;2023-06-22T12:15:11;25.50;99.90
21508;DHT22;10915;54.352;9.074;2023-06-22T12:17:36;25.60;99.90
21508;DHT22;10915;54.352;9.074;2023-06-22T12:20:02;25.60;99.90
21508;DHT22;10915;54.352;9.074;2023-06-22T12:22:34;25.50;99.90
21508;DHT22;10915;54.352;9.074;2023-06-22T12:25:00;25.50;99.90
21508;DHT22;10915;54.352;9.074;2023-06-22T12:27:26;25.80;99.90
21508;DHT22;10915;54.352;9.074;2023-06-22T12:29:52;25.80;99.90
21508;DHT22;10915;54.352;9.074;2023-06-22T12:32:18;25.80;99.90
21508;DHT22;10915;54.352;9.074;2023-06-22T12:34:44;26.00;99.90
21508;DHT22;10915;54.352;9.074;2023-06-22T12:37:10;25.80;99.90
21508;DHT22;10915;54.352;9.074;2023-06-22T12:39:36;26.10;99.90
21508;DHT22;10915;54.352;9.074;2023-06-22T12:42:02;26.30;99.90
21508;DHT22;10915;54.352;9.074;2023-06-22T12:44:27;26.80;99.90
21508;DHT22;10915;54.352;9.074;2023-06-22T12:46:53;26.90;99.90
21508;DHT22;10915;54.352;9.074;2023-06-22T12:49:19;26.80;99.90
21508;DHT22;10915;54.352;9.074;2023-06-22T12:51:45;26.50;99.90
21508;DHT22;10915;54.352;9.074;2023-06-22T12:54:11;26.70;99.90
21508;DHT22;10915;54.352;9.074;2023-06-22T12:56:38;26.60;99.90
21508;DHT22;10915;54.352;9.074;2023-06-22T12:59:06;26.40;99.90
21508;DHT22;10915;54.352;9.074;2023-06-22T13:01:32;26.50;99.90
21508;DHT22;10915;54.352;9.074;2023-06-22T13:03:58;26.70;99.90
21508;DHT22;10915;54.352;9.074;2023-06-22T13:06:24;26.50;99.90
21508;DHT22;10915;54.352;9.074;2023-06-22T13:08:50;26.70;99.90
21508;DHT22;10915;54.352;9.074;2023-06-22T13:11:16;26.40;99.90
21508;DHT22;10915;54.352;9.074;2023-06-22T13:13:41;26.80;99.90
21508;DHT22;10915;54.352;9.074;2023-06-22T13:16:07;27.10;99.90
21508;DHT22;10915;54.352;9.074;2023-06-22T13:18:33;27.30;99.90
21508;DHT22;10915;54.352;9.074;2023-06-22T13:21:04;27.60;99.90
21508;DHT22;10915;54.352;9.074;2023-06-22T13:23:30;27.60;99.90
21508;DHT22;10915;54.352;9.074;2023-06-22T13:25:57;27.60;99.90
21508;DHT22;10915;54.352;9.074;2023-06-22T13:28:22;27.60;99.90
21508;DHT22;10915;54.352;9.074;2023-06-22T13:30:48;26.80;99.90
21508;DHT22;10915;54.352;9.074;2023-06-22T13:33:14;26.80;99.90
21508;DHT22;10915;54.352;9.074;2023-06-22T13:35:40;26.90;99.90
21508;DHT22;10915;54.352;9.074;2023-06-22T13:38:08;27.20;99.90
21508;DHT22;10915;54.352;9.074;2023-06-22T13:40:34;27.20;99.90
21508;DHT22;10915;54.352;9.074;2023-06-22T13:43:00;26.90;99.90
21508;DHT22;10915;54.352;9.074;2023-06-22T13:45:26;27.00;99.90
21508;DHT22;10915;54.352;9.074;2023-06-22T13:47:52;27.40;99.90
21508;DHT22;10915;54.352;9.074;2023-06-22T13:50:17;27.70;99.90
21508;DHT22;10915;54.352;9.074;2023-06-22T13:52:43;27.90;99.90
21508;DHT22;10915;54.352;9.074;2023-06-22T13:55:09;28.10;99.90
21508;DHT22;10915;54.352;9.074;2023-06-22T13:57:35;28.10;99.90
21508;DHT22;10915;54.352;9.074;2023-06-22T14:00:01;28.20;99.90
21508;DHT22;10915;54.352;9.074;2023-06-22T14:02:26;28.30;99.90
21508;DHT22;10915;54.352;9.074;2023-06-22T14:04:53;28.50;99.90
21508;DHT22;10915;54.352;9.074;2023-06-22T14:07:19;28.50;99.90
21508;DHT22;10915;54.352;9.074;2023-06-22T14:09:46;28.70;99.90
21508;DHT22;10915;54.352;9.074;2023-06-22T14:12:12;28.30;99.90
21508;DHT22;10915;54.352;9.074;2023-06-22T14:14:38;28.10;99.90
21508;DHT22;10915;54.352;9.074;2023-06-22T14:17:04;28.10;99.90
21508;DHT22;10915;54.352;9.074;2023-06-22T14:22:07;28.10;99.90
21508;DHT22;10915;54.352;9.074;2023-06-22T14:24:53;28.20;99.90
21508;DHT22;10915;54.352;9.074;2023-06-22T14:27:31;28.10;99.90
21508;DHT22;10915;54.352;9.074;2023-06-22T14:29:56;27.10;99.90
21508;DHT22;10915;54.352;9.074;2023-06-22T14:32:22;26.90;99.90
21508;DHT22;10915;54.352;9.074;2023-06-22T14:34:48;26.20;99.90
21508;DHT22;10915;54.352;9.074;2023-06-22T14:37:15;25.90;99.90
21508;DHT22;10915;54.352;9.074;2023-06-22T14:39:43;26.00;99.90
21508;DHT22;10915;54.352;9.074;2023-06-22T14:42:09;26.20;99.90
21508;DHT22;10915;54.352;9.074;2023-06-22T14:44:34;25.90;99.90
21508;DHT22;10915;54.352;9.074;2023-06-22T14:47:04;25.60;99.90
21508;DHT22;10915;54.352;9.074;2023-06-22T14:49:29;25.80;99.90
21508;DHT22;10915;54.352;9.074;2023-06-22T14:51:55;25.90;99.90
21508;DHT22;10915;54.352;9.074;2023-06-22T14:54:21;25.90;99.90
21508;DHT22;10915;54.352;9.074;2023-06-22T14:56:54;25.90;99.90
21508;DHT22;10915;54.352;9.074;2023-06-22T14:59:40;25.80;99.90
21508;DHT22;10915;54.352;9.074;2023-06-22T15:02:05;25.60;99.90
21508;DHT22;10915;54.352;9.074;2023-06-22T15:04:31;25.60;99.90
21508;DHT22;10915;54.352;9.074;2023-06-22T15:07:01;25.80;99.90
21508;DHT22;10915;54.352;9.074;2023-06-22T15:09:26;25.80;99.90
21508;DHT22;10915;54.352;9.074;2023-06-22T15:11:58;25.80;99.90
21508;DHT22;10915;54.352;9.074;2023-06-22T15:14:29;25.50;99.90
21508;DHT22;10915;54.352;9.074;2023-06-22T15:16:55;25.40;99.90
21508;DHT22;10915;54.352;9.074;2023-06-22T15:19:27;25.50;99.90
21508;DHT22;10915;54.352;9.074;2023-06-22T15:21:52;25.70;99.90
21508;DHT22;10915;54.352;9.074;2023-06-22T15:24:18;25.60;99.90
21508;DHT22;10915;54.352;9.074;2023-06-22T15:26:44;25.80;99.90
21508;DHT22;10915;54.352;9.074;2023-06-22T15:29:09;25.90;99.90
21508;DHT22;10915;54.352;9.074;2023-06-22T15:31:35;25.80;99.90
21508;DHT22;10915;54.352;9.074;2023-06-22T15:34:01;25.40;99.90
21508;DHT22;10915;54.352;9.074;2023-06-22T15:36:29;25.10;99.90
21508;DHT22;10915;54.352;9.074;2023-06-22T15:38:54;24.80;99.90
21508;DHT22;10915;54.352;9.074;2023-06-22T15:41:20;24.80;99.90
21508;DHT22;10915;54.352;9.074;2023-06-22T15:43:45;24.80;99.90
21508;DHT22;10915;54.352;9.074;2023-06-22T15:46:11;25.00;99.90
21508;DHT22;10915;54.352;9.074;2023-06-22T15:48:37;25.00;99.90
21508;DHT22;10915;54.352;9.074;2023-06-22T15:51:02;25.00;99.90
21508;DHT22;10915;54.352;9.074;2023-06-22T15:53:29;24.90;99.90
21508;DHT22;10915;54.352;9.074;2023-06-22T15:55:55;24.50;99.90
21508;DHT22;10915;54.352;9.074;2023-06-22T15:58:20;24.50;99.90
21508;DHT22;10915;54.352;9.074;2023-06-22T16:00:46;24.60;99.90
21508;DHT22;10915;54.352;9.074;2023-06-22T16:03:14;24.70;99.90